Time;durP1;ratioP1;P1;durP2;ratioP2;P2;SDS_P1;SDS_P2;PMS_P1;PMS_P2;Temp;Humidity;BMP_temperature;BMP_pressure;BME280_temperature;BME280_humidity;BME280_pressure;Samples;Min_cycle;Max_cycle;Signal;HPM_P1;HPM_P2
2021/06/02 00:02:11;;;;;;;2.70;1.50;;;;;;;19.62;44.19;101349.47;143721;596;47004;-65
2021/06/02 00:04:43;;;;;;;1.75;1.50;;;;;;;19.60;44.18;101332.53;143722;595;47008;-64
2021/06/02 00:07:13;;;;;;;4.18;2.03;;;;;;;19.60;44.35;101343.44;143722;574;47004;-64
2021/06/02 00:09:40;;;;;;;3.92;2.53;;;;;;;19.59;44.41;101339.91;143723;567;47008;-64
2021/06/02 00:12:10;;;;;;;2.78;1.90;;;;;;;19.58;44.87;101342.88;143723;600;47004;-64
2021/06/02 00:14:38;;;;;;;3.10;1.95;;;;;;;19.56;46.05;101343.09;143724;609;47008;-64
2021/06/02 00:17:06;;;;;;;2.50;2.10;;;;;;;19.54;45.11;101358.87;143723;637;47005;-63
2021/06/02 00:19:34;;;;;;;3.37;2.90;;;;;;;19.57;45.45;101357.56;143725;592;47008;-63
2021/06/02 00:22:03;;;;;;;3.12;2.83;;;;;;;19.53;45.32;101366.22;143723;567;47004;-63
2021/06/02 00:24:30;;;;;;;5.57;4.03;;;;;;;19.51;46.35;101364.78;143724;579;47011;-63
2021/06/02 00:27:00;;;;;;;4.32;3.22;;;;;;;19.49;46.32;101364.25;143721;568;47004;-64
2021/06/02 00:29:30;;;;;;;4.03;2.58;;;;;;;19.47;45.84;101358.19;143725;582;47008;-64
2021/06/02 00:31:57;;;;;;;4.87;2.50;;;;;;;19.44;45.79;101345.87;143721;645;47007;-63
2021/06/02 00:34:24;;;;;;;8.07;2.20;;;;;;;19.43;45.36;101357.84;143724;572;47008;-63
2021/06/02 00:36:51;;;;;;;2.85;2.00;;;;;;;19.42;44.91;101353.47;143722;602;47004;-63
2021/06/02 00:39:18;;;;;;;2.90;1.80;;;;;;;19.44;44.40;101364.94;143724;634;46009;-63
2021/06/02 00:41:47;;;;;;;4.00;1.92;;;;;;;19.45;44.36;101361.16;143724;594;47004;-63
2021/06/02 00:44:19;;;;;;;3.15;2.08;;;;;;;19.43;45.63;101362.47;143723;566;47008;-63
2021/06/02 00:46:47;;;;;;;3.55;1.87;;;;;;;19.42;45.20;101374.44;143723;576;47006;-63
2021/06/02 00:49:21;;;;;;;2.87;2.25;;;;;;;19.44;45.88;101378.56;143724;569;47008;-63
2021/06/02 00:52:03;;;;;;;2.70;1.98;;;;;;;19.42;45.58;101377.97;143724;807;47004;-64
2021/06/02 00:54:32;;;;;;;3.00;2.58;;;;;;;19.42;44.90;101369.81;143722;588;47008;-65
2021/06/02 00:57:29;;;;;;;4.50;2.40;;;;;;;19.39;45.66;101371.12;143722;572;47006;-65
2021/06/02 01:00:10;;;;;;;6.10;2.25;;;;;;;19.36;46.68;101370.78;143728;577;45931;-66
2021/06/02 01:02:41;;;;;;;3.33;1.83;;;;;;;19.35;46.28;101363.69;143728;586;46008;-66
2021/06/02 01:05:10;;;;;;;10.43;1.98;;;;;;;19.34;46.71;101370.19;143724;631;47008;-65
2021/06/02 01:07:38;;;;;;;3.47;1.80;;;;;;;19.23;47.02;101366.44;143723;584;47006;-65
2021/06/02 01:10:06;;;;;;;4.30;2.50;;;;;;;19.18;47.53;101360.88;143724;572;46019;-65
2021/06/02 01:12:33;;;;;;;3.37;2.53;;;;;;;19.18;46.91;101369.88;143725;688;47004;-65
2021/06/02 01:15:00;;;;;;;4.72;2.20;;;;;;;19.19;46.21;101368.81;143723;569;47006;-64
2021/06/02 01:17:29;;;;;;;2.10;1.90;;;;;;;19.23;46.51;101361.84;143719;604;47004;-65
2021/06/02 01:19:57;;;;;;;8.25;2.30;;;;;;;19.27;47.18;101364.03;143723;647;46013;-65
2021/06/02 01:22:25;;;;;;;8.88;2.70;;;;;;;19.24;47.33;101370.81;143722;612;47013;-64
2021/06/02 01:24:51;;;;;;;5.18;2.72;;;;;;;19.19;47.05;101379.72;143724;805;47013;-64
2021/06/02 01:27:18;;;;;;;5.72;1.90;;;;;;;19.20;47.50;101370.47;143724;590;47008;-64
2021/06/02 01:29:50;;;;;;;3.47;1.85;;;;;;;19.18;47.17;101378.06;143724;641;46022;-64
2021/06/02 01:33:12;;;;;;;3.28;2.00;;;;;;;19.21;46.60;101380.31;143726;665;47006;-64
2021/06/02 01:36:14;;;;;;;3.55;2.15;;;;;;;19.23;46.04;101383.63;143720;584;47004;-64
2021/06/02 01:39:16;;;;;;;2.65;2.00;;;;;;;19.28;45.03;101384.78;143724;579;47004;-65
2021/06/02 01:42:17;;;;;;;4.55;2.00;;;;;;;19.26;44.92;101386.91;143726;580;47008;-65
2021/06/02 01:45:27;;;;;;;3.65;2.08;;;;;;;19.23;45.12;101386.34;143726;595;47004;-65
2021/06/02 01:48:53;;;;;;;3.00;1.90;;;;;;;19.20;45.36;101378.66;143721;578;47013;-65
2021/06/02 01:51:54;;;;;;;2.20;1.70;;;;;;;19.17;45.44;101381.84;143724;566;47010;-65
2021/06/02 01:55:00;;;;;;;5.05;2.10;;;;;;;19.16;44.95;101382.06;143721;872;47004;-65
2021/06/02 01:58:00;;;;;;;3.75;1.80;;;;;;;19.10;45.82;101400.19;143727;609;47006;-65
2021/06/02 02:01:00;;;;;;;2.85;1.70;;;;;;;19.06;45.61;101397.13;143721;616;47010;-64
2021/06/02 02:03:56;;;;;;;2.97;2.08;;;;;;;19.08;45.59;101405.03;143722;618;47931;-65
2021/06/02 02:06:58;;;;;;;3.15;1.95;;;;;;;19.11;46.26;101398.31;143725;582;46008;-65
2021/06/02 02:10:05;;;;;;;4.12;2.00;;;;;;;19.06;45.71;101410.75;143724;574;47008;-65
2021/06/02 02:13:09;;;;;;;2.50;2.20;;;;;;;19.08;46.34;101410.50;143723;629;47008;-64
2021/06/02 02:16:08;;;;;;;3.37;1.90;;;;;;;19.07;47.04;101420.56;143723;569;47004;-65
2021/06/02 02:19:05;;;;;;;3.83;2.12;;;;;;;19.03;46.44;101410.41;143725;695;47006;-64
2021/06/02 02:21:54;;;;;;;4.72;2.60;;;;;;;19.03;46.85;101408.50;143723;567;47005;-64
2021/06/02 02:24:43;;;;;;;5.40;3.90;;;;;;;19.06;47.33;101412.66;143724;625;47008;-64
2021/06/02 02:27:48;;;;;;;6.97;4.50;;;;;;;19.06;47.97;101420.81;143723;572;47006;-64
2021/06/02 02:30:50;;;;;;;9.32;4.72;;;;;;;19.04;47.16;101433.84;143727;598;47009;-65
2021/06/02 02:33:50;;;;;;;9.23;4.78;;;;;;;19.01;46.91;101421.50;143724;596;47002;-65
2021/06/02 02:36:34;;;;;;;7.30;4.18;;;;;;;19.01;46.84;101417.97;143724;595;47010;-65
2021/06/02 02:39:33;;;;;;;5.95;3.67;;;;;;;19.05;47.16;101417.25;143722;600;47007;-64
2021/06/02 02:42:29;;;;;;;8.25;3.30;;;;;;;18.98;46.73;101413.81;143726;592;47006;-65
2021/06/02 02:45:35;;;;;;;3.83;2.58;;;;;;;19.00;46.01;101419.84;143724;570;47006;-65
2021/06/02 02:48:29;;;;;;;2.50;2.12;;;;;;;18.95;45.47;101417.03;143723;577;47008;-65
2021/06/02 02:51:32;;;;;;;5.47;2.62;;;;;;;18.93;45.82;101419.94;143724;573;47006;-64
2021/06/02 02:54:07;;;;;;;7.28;2.47;;;;;;;18.92;44.85;101428.38;143721;587;47004;-64
2021/06/02 02:56:57;;;;;;;3.17;1.70;;;;;;;18.89;44.57;101431.56;143725;682;47002;-65
2021/06/02 03:00:24;;;;;;;6.25;2.15;;;;;;;18.85;44.87;101433.94;143725;580;47010;-64
2021/06/02 03:03:33;;;;;;;5.10;2.42;;;;;;;18.81;44.89;101427.31;143724;632;47004;-65
2021/06/02 03:06:41;;;;;;;3.05;1.90;;;;;;;18.80;45.44;101433.81;143724;633;47006;-65
2021/06/02 03:09:38;;;;;;;2.80;2.03;;;;;;;18.81;45.43;101437.34;143725;623;47006;-64
2021/06/02 03:12:51;;;;;;;7.68;2.20;;;;;;;18.82;45.93;101433.56;143725;578;47010;-65
2021/06/02 03:15:43;;;;;;;3.47;2.00;;;;;;;18.85;46.46;101438.53;143724;638;47004;-64
2021/06/02 03:18:35;;;;;;;3.22;2.58;;;;;;;18.84;46.28;101429.56;143727;589;47008;-64
2021/06/02 03:21:42;;;;;;;8.00;2.22;;;;;;;18.80;46.77;101433.81;143726;650;47004;-64
2021/06/02 03:24:48;;;;;;;5.22;2.55;;;;;;;18.75;47.04;101439.97;143725;593;47011;-64
2021/06/02 03:27:26;;;;;;;4.07;2.95;;;;;;;18.79;47.05;101454.75;143724;570;47006;-64
2021/06/02 03:30:23;;;;;;;7.82;3.78;;;;;;;18.79;47.90;101451.19;143722;567;47008;-64
2021/06/02 03:33:37;;;;;;;17.10;7.90;;;;;;;18.78;49.39;101457.69;143726;593;47004;-65
2021/06/02 03:36:47;;;;;;;20.75;8.57;;;;;;;18.75;49.45;101458.16;143724;574;46012;-65
2021/06/02 03:39:38;;;;;;;20.75;11.27;;;;;;;18.70;49.64;101458.88;143723;585;47004;-65
2021/06/02 03:42:41;;;;;;;23.15;11.75;;;;;;;18.71;49.93;101459.72;143724;576;47008;-66
2021/06/02 03:45:42;;;;;;;20.40;12.43;;;;;;;18.68;49.66;101461.00;143728;601;47002;-65
2021/06/02 03:48:54;;;;;;;21.83;12.32;;;;;;;18.70;49.77;101467.03;143723;604;47010;-65
2021/06/02 03:51:48;;;;;;;21.65;11.60;;;;;;;18.69;49.97;101470.81;143724;622;47002;-64
2021/06/02 03:54:39;;;;;;;23.97;11.87;;;;;;;18.72;50.15;101474.97;143724;589;47008;-65
2021/06/02 03:57:34;;;;;;;21.25;11.43;;;;;;;18.71;50.45;101471.41;143727;587;47004;-65
2021/06/02 04:00:20;;;;;;;17.02;10.10;;;;;;;18.76;49.83;101487.03;143724;624;47010;-66
2021/06/02 04:03:11;;;;;;;13.50;8.60;;;;;;;18.78;49.43;101477.59;143725;615;47006;-64
2021/06/02 04:06:06;;;;;;;15.88;8.10;;;;;;;18.83;49.21;101484.19;143724;649;47008;-64
2021/06/02 04:08:58;;;;;;;13.23;6.60;;;;;;;18.90;48.96;101483.03;143722;584;47002;-64
2021/06/02 04:12:06;;;;;;;9.15;5.70;;;;;;;18.93;48.56;101488.00;143721;582;47010;-64
2021/06/02 04:14:37;;;;;;;4.62;2.45;;;;;;;19.03;46.11;101486.62;143723;573;47006;-64
2021/06/02 04:17:03;;;;;;;5.07;1.65;;;;;;;19.12;45.99;101490.66;143724;602;47006;-64
2021/06/02 04:19:32;;;;;;;3.60;2.40;;;;;;;19.25;45.95;101495.03;143724;594;47004;-64
2021/06/02 04:22:06;;;;;;;2.55;1.77;;;;;;;19.34;46.00;101495.50;143723;604;47011;-64
2021/06/02 04:24:34;;;;;;;1.98;1.50;;;;;;;19.38;45.20;101485.78;143724;606;47004;-65
2021/06/02 04:27:01;;;;;;;2.55;1.52;;;;;;;19.47;45.42;101499.88;143723;574;47008;-65
2021/06/02 04:29:28;;;;;;;3.08;1.50;;;;;;;19.57;44.69;101489.16;143725;650;47004;-65
2021/06/02 04:31:59;;;;;;;3.55;1.70;;;;;;;19.69;44.35;101492.69;143723;572;47008;-66
2021/06/02 04:34:28;;;;;;;5.75;1.90;;;;;;;19.81;44.29;101495.38;143726;628;46015;-66
2021/06/02 04:36:57;;;;;;;2.42;1.50;;;;;;;19.94;43.43;101488.88;143728;589;46006;-66
2021/06/02 04:39:24;;;;;;;4.82;1.40;;;;;;;20.05;42.85;101489.88;143726;588;47004;-65
2021/06/02 04:41:59;;;;;;;3.40;1.35;;;;;;;20.18;43.42;101494.22;143726;630;46010;-65
2021/06/02 04:44:27;;;;;;;1.67;1.42;;;;;;;20.24;42.02;101501.41;143725;573;47004;-65
2021/06/02 04:46:54;;;;;;;3.67;1.33;;;;;;;20.39;42.36;101513.69;143728;582;46008;-63
2021/06/02 04:49:28;;;;;;;1.73;1.17;;;;;;;20.51;42.69;101508.16;143729;576;47000;-63
2021/06/02 04:52:26;;;;;;;3.70;1.63;;;;;;;20.58;42.75;101508.84;143727;605;46014;-63
2021/06/02 04:55:34;;;;;;;5.78;1.35;;;;;;;20.67;40.90;101515.53;143725;589;48004;-65
2021/06/02 04:58:39;;;;;;;6.80;2.90;;;;;;;20.80;41.85;101517.16;143726;641;46006;-65
2021/06/02 05:01:46;;;;;;;9.02;4.80;;;;;;;20.86;45.28;101520.78;143724;589;46008;-64
2021/06/02 05:04:51;;;;;;;8.52;4.82;;;;;;;20.87;46.59;101530.62;143725;979;47004;-65
2021/06/02 05:07:53;;;;;;;11.90;5.43;;;;;;;20.84;47.18;101521.03;143719;567;47015;-64
2021/06/02 05:11:04;;;;;;;11.12;6.55;;;;;;;20.77;47.75;101533.22;143726;961;47008;-64
2021/06/02 05:14:06;;;;;;;15.15;7.12;;;;;;;20.74;47.42;101531.75;143726;688;47004;-66
2021/06/02 05:17:10;;;;;;;10.63;5.75;;;;;;;20.76;47.39;101543.28;143723;597;47010;-65
2021/06/02 05:22:04;;;;;;;8.10;3.25;;;;;;;20.85;43.06;101530.91;143724;868;47004;-66
2021/06/02 05:24:22;;;;;;;2.50;1.77;;;;;;;21.02;43.45;101535.53;143724;849;47004;-65
2021/06/02 05:27:30;;;;;;;11.57;5.00;;;;;;;21.07;45.74;101537.50;143724;603;47004;-66
2021/06/02 05:30:52;;;;;;;3.15;1.60;;;;;;;21.08;40.40;101541.87;143722;573;47009;-65
2021/06/02 05:33:58;;;;;;;3.42;1.52;;;;;;;21.18;41.15;101553.00;143724;574;47004;-65
2021/06/02 05:36:53;;;;;;;2.60;1.30;;;;;;;21.23;40.53;101539.38;143726;573;47008;-65
2021/06/02 05:40:03;;;;;;;5.10;1.60;;;;;;;21.27;40.39;101551.47;143726;864;47006;-65
2021/06/02 05:43:26;;;;;;;3.65;1.20;;;;;;;21.38;40.04;101557.91;143726;593;46018;-65
2021/06/02 05:46:41;;;;;;;1.60;1.00;;;;;;;21.39;39.62;101564.19;143724;567;47004;-65
2021/06/02 05:49:43;;;;;;;4.43;1.45;;;;;;;21.42;40.25;101567.28;143728;586;47008;-66
2021/06/02 05:52:55;;;;;;;1.73;1.08;;;;;;;21.48;39.46;101573.63;143726;758;47004;-65
2021/06/02 05:56:16;;;;;;;3.22;1.30;;;;;;;21.57;39.50;101574.84;143723;874;47012;-65
2021/06/02 05:59:26;;;;;;;6.78;1.62;;;;;;;21.62;38.43;101572.22;143723;647;47004;-65
2021/06/02 06:02:37;;;;;;;1.55;1.00;;;;;;;21.67;38.90;101573.38;143726;567;46008;-65
2021/06/02 06:05:40;;;;;;;3.85;1.48;;;;;;;21.75;39.52;101570.19;143726;581;47002;-64
2021/06/02 06:09:04;;;;;;;3.65;1.23;;;;;;;21.82;39.29;101576.31;143725;597;47010;-65
2021/06/02 06:12:19;;;;;;;2.75;1.15;;;;;;;21.90;38.50;101577.78;143723;944;47006;-65
2021/06/02 06:15:20;;;;;;;3.53;1.50;;;;;;;21.98;39.64;101571.84;143724;569;47009;-65
2021/06/02 06:18:24;;;;;;;2.30;1.40;;;;;;;22.01;39.00;101585.03;143724;631;47004;-66
2021/06/02 06:21:36;;;;;;;1.95;1.00;;;;;;;22.04;38.72;101583.72;143725;897;47012;-65
2021/06/02 06:24:08;;;;;;;3.30;1.52;;;;;;;22.07;38.74;101583.19;143724;575;47004;-65
2021/06/02 06:27:07;;;;;;;3.28;1.00;;;;;;;22.15;39.66;101581.94;143729;594;46006;-69
2021/06/02 06:30:21;;;;;;;4.03;1.83;;;;;;;22.21;39.19;101578.16;143727;794;48008;-71
2021/06/02 06:32:52;;;;;;;6.00;4.18;;;;;;;22.23;39.35;101586.94;143729;572;46010;-68
2021/06/02 06:35:20;;;;;;;6.50;4.57;;;;;;;22.27;40.31;101594.38;143722;972;47005;-67
2021/06/02 06:37:52;;;;;;;10.77;9.02;;;;;;;22.34;40.27;101598.81;143724;904;46008;-69
2021/06/02 06:40:24;;;;;;;10.35;8.85;;;;;;;22.30;39.97;101601.25;143722;567;47004;-70
2021/06/02 06:42:54;;;;;;;8.95;8.00;;;;;;;22.26;40.72;101595.44;143723;624;47010;-69
2021/06/02 06:45:25;;;;;;;5.62;3.00;;;;;;;22.28;41.28;101595.22;143722;732;47004;-69
2021/06/02 06:47:53;;;;;;;6.25;3.97;;;;;;;22.34;41.71;101598.81;143718;627;49002;-69
2021/06/02 06:50:20;;;;;;;4.50;2.87;;;;;;;22.39;41.77;101601.62;143723;567;47002;-68
2021/06/02 06:52:53;;;;;;;15.60;9.30;;;;;;;22.47;41.69;101597.62;143726;972;47008;-69
2021/06/02 06:55:22;;;;;;;7.47;3.58;;;;;;;22.54;41.29;101598.25;143721;631;47006;-67
2021/06/02 06:57:49;;;;;;;3.97;2.25;;;;;;;22.59;41.27;101595.56;143720;569;47007;-68
2021/06/02 07:00:17;;;;;;;4.07;2.37;;;;;;;22.66;41.20;101598.94;143721;935;47002;-68
2021/06/02 07:02:45;;;;;;;4.50;2.20;;;;;;;22.64;40.39;101603.00;143721;584;47010;-68
2021/06/02 07:05:12;;;;;;;4.78;2.20;;;;;;;22.65;40.19;101596.44;143719;978;47006;-68
2021/06/02 07:07:44;;;;;;;3.08;2.42;;;;;;;22.65;39.79;101608.22;143723;581;47006;-70
2021/06/02 07:10:13;;;;;;;4.35;2.30;;;;;;;22.59;39.82;101606.50;143723;985;47004;-68
2021/06/02 07:12:41;;;;;;;2.47;1.83;;;;;;;22.69;40.22;101614.00;143721;746;47012;-68
2021/06/02 07:15:10;;;;;;;2.50;2.22;;;;;;;22.73;40.04;101617.03;143721;573;47007;-69
2021/06/02 07:17:41;;;;;;;4.37;1.75;;;;;;;22.81;38.97;101611.12;143721;979;47006;-68
2021/06/02 07:20:10;;;;;;;2.85;1.98;;;;;;;22.87;39.90;101618.28;143722;916;47002;-68
2021/06/02 07:22:44;;;;;;;3.78;1.87;;;;;;;22.92;39.14;101620.25;143720;584;47010;-67
2021/06/02 07:25:17;;;;;;;2.35;1.77;;;;;;;22.90;39.72;101615.00;143721;959;47004;-67
2021/06/02 07:27:45;;;;;;;3.75;1.62;;;;;;;22.91;38.57;101611.19;143721;586;47008;-66
2021/06/02 07:30:13;;;;;;;5.30;2.00;;;;;;;22.97;39.08;101617.53;143723;758;47006;-68
2021/06/02 07:32:40;;;;;;;3.53;1.90;;;;;;;23.00;38.61;101617.03;143722;843;47010;-67
2021/06/02 07:35:07;;;;;;;3.78;2.03;;;;;;;23.05;38.65;101619.81;143722;810;47005;-68
2021/06/02 07:37:34;;;;;;;3.78;2.20;;;;;;;23.13;38.62;101611.09;143721;977;47008;-68
2021/06/02 07:40:02;;;;;;;5.20;1.90;;;;;;;23.23;38.06;101621.34;143722;736;47004;-68
2021/06/02 07:42:28;;;;;;;2.70;1.70;;;;;;;23.27;36.86;101608.78;143723;591;47011;-67
2021/06/02 07:44:55;;;;;;;5.10;1.70;;;;;;;23.34;37.75;101613.22;143721;596;47006;-69
2021/06/02 07:47:21;;;;;;;2.37;1.60;;;;;;;23.40;36.76;101623.13;143720;749;47006;-67
2021/06/02 07:49:48;;;;;;;2.00;1.80;;;;;;;23.39;36.70;101616.81;143724;583;47002;-67
2021/06/02 07:52:14;;;;;;;4.93;1.75;;;;;;;23.40;37.26;101623.97;143723;577;47011;-67
2021/06/02 07:54:41;;;;;;;3.47;1.73;;;;;;;23.51;38.09;101626.75;143721;959;47006;-67
2021/06/02 07:57:08;;;;;;;2.00;1.60;;;;;;;23.60;37.10;101625.19;143718;954;48008;-65
2021/06/02 07:59:34;;;;;;;3.53;1.80;;;;;;;23.68;36.37;101624.66;143723;671;47005;-65
2021/06/02 08:02:02;;;;;;;4.90;1.75;;;;;;;23.77;36.28;101622.25;143722;569;47023;-65
2021/06/02 08:04:30;;;;;;;1.95;1.50;;;;;;;23.89;35.19;101622.03;143722;668;47006;-66
2021/06/02 08:06:57;;;;;;;1.80;1.50;;;;;;;23.92;34.02;101635.22;143722;588;47006;-65
2021/06/02 08:09:24;;;;;;;3.40;1.23;;;;;;;23.93;33.55;101631.41;143723;583;47006;-65
2021/06/02 08:11:51;;;;;;;1.98;1.30;;;;;;;24.02;34.72;101632.56;143724;599;47006;-65
2021/06/02 08:14:17;;;;;;;2.22;1.40;;;;;;;24.09;33.48;101634.25;143721;579;47004;-65
2021/06/02 08:16:44;;;;;;;2.03;1.20;;;;;;;24.14;34.03;101631.53;143721;654;47008;-65
2021/06/02 08:19:10;;;;;;;1.85;1.23;;;;;;;24.21;34.59;101634.84;143723;581;47004;-66
2021/06/02 08:21:38;;;;;;;1.58;1.40;;;;;;;24.31;34.60;101640.37;143722;560;47013;-65
2021/06/02 08:24:05;;;;;;;2.75;1.40;;;;;;;24.36;33.52;101626.66;143720;695;47004;-67
2021/06/02 08:26:38;;;;;;;2.08;1.50;;;;;;;24.42;33.59;101632.16;143722;650;47008;-65
2021/06/02 08:29:05;;;;;;;1.73;1.25;;;;;;;24.51;33.86;101636.06;143724;602;47006;-65
2021/06/02 08:31:32;;;;;;;3.45;1.60;;;;;;;24.61;32.26;101640.75;143725;567;47020;-66
2021/06/02 08:33:59;;;;;;;2.05;1.50;;;;;;;24.65;33.24;101647.31;143721;585;47006;-67
2021/06/02 08:36:26;;;;;;;3.05;1.80;;;;;;;24.67;33.64;101645.97;143723;581;47009;-67
2021/06/02 08:38:53;;;;;;;2.30;1.30;;;;;;;24.75;34.59;101657.53;143724;590;47002;-67
2021/06/02 08:41:20;;;;;;;1.92;1.17;;;;;;;24.79;31.96;101648.50;143721;589;47010;-66
2021/06/02 08:43:48;;;;;;;1.90;1.10;;;;;;;24.82;32.33;101650.69;143721;577;47007;-65
2021/06/02 08:46:15;;;;;;;1.77;1.20;;;;;;;24.76;31.05;101642.72;143723;719;47006;-66
2021/06/02 08:48:49;;;;;;;1.92;1.10;;;;;;;24.87;31.89;101640.81;143724;589;47002;-65
2021/06/02 08:51:19;;;;;;;4.78;1.30;;;;;;;24.96;32.04;101639.19;143723;589;47010;-65
2021/06/02 08:53:50;;;;;;;3.75;1.37;;;;;;;25.06;32.03;101636.41;143721;586;47004;-67
2021/06/02 08:56:17;;;;;;;2.10;1.20;;;;;;;25.15;31.14;101633.94;143722;603;47008;-66
2021/06/02 08:58:43;;;;;;;2.28;1.25;;;;;;;25.19;31.85;101636.97;143723;600;48012;-66
2021/06/02 09:01:10;;;;;;;2.30;1.42;;;;;;;25.26;31.11;101646.56;143721;589;47010;-65
2021/06/02 09:03:36;;;;;;;4.15;2.12;;;;;;;25.31;31.57;101642.19;143718;590;48006;-66
2021/06/02 09:06:07;;;;;;;1.85;1.30;;;;;;;25.35;32.04;101635.84;143723;586;46007;-66
2021/06/02 09:08:34;;;;;;;1.65;1.40;;;;;;;25.39;31.89;101641.66;143721;580;47006;-66
2021/06/02 09:11:18;;;;;;;1.80;1.23;;;;;;;25.49;30.44;101641.66;143720;590;47012;-66
2021/06/02 09:13:46;;;;;;;4.45;1.37;;;;;;;25.56;29.95;101636.69;143721;583;47004;-67
2021/06/02 09:16:47;;;;;;;2.20;1.35;;;;;;;25.61;29.82;101627.59;143725;710;46021;-66
2021/06/02 09:19:13;;;;;;;3.62;1.73;;;;;;;25.69;29.60;101624.25;143723;769;47004;-66
2021/06/02 09:21:40;;;;;;;2.75;1.40;;;;;;;25.72;29.36;101629.22;143723;588;47013;-67
2021/06/02 09:24:07;;;;;;;3.05;1.42;;;;;;;25.80;30.20;101622.31;143719;603;48002;-66
2021/06/02 09:26:33;;;;;;;2.92;1.35;;;;;;;25.88;30.09;101630.00;143721;652;47006;-65
2021/06/02 09:29:09;;;;;;;3.87;1.40;;;;;;;26.02;30.37;101621.97;143722;597;47006;-65
2021/06/02 09:31:39;;;;;;;3.78;1.27;;;;;;;26.02;28.55;101627.50;143721;732;47010;-66
2021/06/02 09:34:17;;;;;;;5.30;1.60;;;;;;;26.12;29.94;101620.31;143721;646;47006;-65
2021/06/02 09:36:50;;;;;;;1.73;1.00;;;;;;;26.25;27.90;101618.88;143724;656;46008;-66
2021/06/02 09:39:22;;;;;;;1.48;1.10;;;;;;;26.34;29.62;101611.66;143725;580;47004;-66
2021/06/02 09:41:54;;;;;;;1.62;1.05;;;;;;;26.45;28.73;101624.28;143723;573;47010;-66
2021/06/02 09:44:22;;;;;;;2.12;1.30;;;;;;;26.38;31.62;101622.94;143725;664;46962;-65
2021/06/02 09:47:08;;;;;;;2.87;1.62;;;;;;;26.48;32.56;101620.13;143720;744;47006;-66
2021/06/02 09:49:54;;;;;;;2.05;1.58;;;;;;;26.41;33.26;101614.94;143725;584;47004;-66
2021/06/02 09:52:49;;;;;;;3.20;1.67;;;;;;;26.35;33.15;101615.25;143719;569;47004;-64
2021/06/02 09:55:27;;;;;;;2.65;1.60;;;;;;;26.31;33.37;101613.06;143722;589;47006;-66
2021/06/02 09:58:22;;;;;;;3.55;2.17;;;;;;;26.24;32.91;101611.72;143725;597;46019;-64
2021/06/02 10:00:58;;;;;;;1.60;1.23;;;;;;;26.06;31.91;101610.38;143727;615;47000;-64
2021/06/02 10:03:30;;;;;;;4.07;2.05;;;;;;;26.11;31.77;101607.63;143724;574;46012;-63
2021/06/02 10:05:57;;;;;;;4.62;1.85;;;;;;;26.11;32.72;101608.47;143721;583;47007;-63
2021/06/02 10:08:34;;;;;;;3.55;1.50;;;;;;;25.87;32.16;101605.50;143724;581;46018;-63
2021/06/02 10:11:19;;;;;;;3.65;1.60;;;;;;;25.99;32.08;101602.44;143723;603;47002;-64
2021/06/02 10:13:54;;;;;;;2.10;1.50;;;;;;;26.11;32.35;101608.47;143723;580;46022;-65
2021/06/02 10:16:40;;;;;;;2.60;1.30;;;;;;;26.18;32.14;101605.41;143722;636;47006;-64
2021/06/02 10:19:07;;;;;;;2.42;1.65;;;;;;;26.15;32.14;101614.25;143719;591;47922;-64
2021/06/02 10:21:44;;;;;;;7.93;2.05;;;;;;;26.03;32.34;101611.78;143723;618;47006;-65
2021/06/02 10:24:11;;;;;;;4.43;1.80;;;;;;;26.07;32.31;101603.78;143722;618;47010;-65
2021/06/02 10:26:40;;;;;;;3.60;1.50;;;;;;;26.18;31.96;101608.97;143723;584;47006;-65
2021/06/02 10:29:08;;;;;;;3.25;2.22;;;;;;;26.16;31.81;101613.94;143719;609;47004;-64
2021/06/02 10:31:35;;;;;;;3.85;1.70;;;;;;;26.09;32.54;101612.56;143722;573;47002;-64
2021/06/02 10:34:02;;;;;;;3.00;1.17;;;;;;;25.98;32.83;101604.38;143724;588;47010;-64
2021/06/02 10:36:30;;;;;;;2.00;1.58;;;;;;;25.88;32.46;101612.66;143723;570;47006;-65
2021/06/02 10:38:59;;;;;;;2.83;1.65;;;;;;;25.64;32.56;101621.53;143719;626;49014;-64
2021/06/02 10:42:00;;;;;;;4.68;1.35;;;;;;;25.73;33.22;101611.59;143723;613;47003;-65
2021/06/02 10:44:33;;;;;;;2.87;1.52;;;;;;;25.85;33.24;101608.53;143721;588;47010;-65
2021/06/02 10:47:01;;;;;;;2.58;1.62;;;;;;;25.90;32.60;101609.63;143720;595;47006;-64
2021/06/02 10:49:33;;;;;;;1.73;1.05;;;;;;;25.81;32.11;101609.41;143719;732;47007;-64
2021/06/02 10:51:59;;;;;;;2.55;1.30;;;;;;;25.54;33.52;101611.41;143726;614;47004;-65
2021/06/02 10:54:36;;;;;;;3.12;1.65;;;;;;;25.47;33.16;101613.59;143724;578;47012;-64
2021/06/02 10:57:13;;;;;;;2.78;1.10;;;;;;;25.25;34.29;101613.88;143720;569;47004;-63
2021/06/02 10:59:43;;;;;;;1.70;1.30;;;;;;;25.26;33.44;101615.53;143724;602;47006;-64
2021/06/02 11:02:18;;;;;;;2.45;1.27;;;;;;;25.32;33.99;101614.44;143726;567;47004;-66
2021/06/02 11:05:17;;;;;;;2.53;1.35;;;;;;;25.30;33.67;101610.28;143724;630;47009;-65
2021/06/02 11:07:52;;;;;;;2.50;1.20;;;;;;;25.49;33.69;101627.91;143722;646;47006;-65
2021/06/02 11:10:19;;;;;;;1.67;1.37;;;;;;;25.42;33.72;101624.59;143723;663;46006;-65
2021/06/02 11:13:06;;;;;;;1.77;1.37;;;;;;;25.40;33.66;101615.78;143724;574;47004;-64
2021/06/02 11:15:52;;;;;;;3.10;1.35;;;;;;;25.19;33.22;101615.81;143724;589;47010;-64
2021/06/02 11:18:21;;;;;;;1.73;1.00;;;;;;;25.02;33.96;101618.81;143722;601;47006;-65
2021/06/02 11:20:52;;;;;;;3.22;1.20;;;;;;;25.04;33.63;101619.38;143721;592;47004;-64
2021/06/02 11:23:21;;;;;;;1.90;1.40;;;;;;;24.94;33.43;101605.66;143724;731;47006;-65
2021/06/02 11:25:48;;;;;;;3.17;1.60;;;;;;;24.85;33.80;101608.12;143721;656;47010;-65
2021/06/02 11:28:47;;;;;;;1.70;1.40;;;;;;;24.95;34.19;101599.06;143721;600;47006;-65
2021/06/02 11:31:42;;;;;;;3.08;1.50;;;;;;;25.16;33.50;101594.38;143723;636;47006;-66
2021/06/02 11:34:28;;;;;;;2.35;1.48;;;;;;;25.45;33.12;101587.47;143721;598;47005;-65
2021/06/02 11:37:02;;;;;;;2.03;1.40;;;;;;;25.46;32.23;101600.94;143722;603;47010;-64
2021/06/02 11:39:29;;;;;;;;;;;;;;;25.46;31.31;101603.69;143726;982;47004;-63
2021/06/02 11:41:59;;;;;;;1.55;1.30;;;;;;;25.48;32.09;101592.44;143730;603;46009;-64
2021/06/02 11:44:29;;;;;;;2.55;1.60;;;;;;;25.52;32.00;101588.00;143725;574;47006;-66
2021/06/02 11:46:56;;;;;;;2.55;1.50;;;;;;;25.41;31.50;101579.75;143723;601;46920;-65
2021/06/02 11:49:33;;;;;;;2.47;1.77;;;;;;;25.41;31.94;101595.44;143719;627;47004;-65
2021/06/02 11:52:08;;;;;;;2.37;1.55;;;;;;;25.34;32.04;101592.94;143720;664;47008;-62
2021/06/02 11:54:52;;;;;;;4.95;1.40;;;;;;;25.21;31.71;101588.88;143724;578;47002;-64
2021/06/02 11:57:28;;;;;;;3.95;1.80;;;;;;;25.04;31.96;101594.62;143721;624;47010;-65
2021/06/02 11:59:57;;;;;;;3.03;1.50;;;;;;;24.95;32.39;101594.38;143721;581;47006;-65
2021/06/02 12:02:24;;;;;;;2.40;1.70;;;;;;;24.90;32.64;101593.56;143721;704;46922;-65
2021/06/02 12:04:52;;;;;;;2.70;1.80;;;;;;;25.05;32.89;101593.53;143728;599;46006;-63
2021/06/02 12:07:30;;;;;;;3.62;2.22;;;;;;;25.10;32.48;101592.72;143724;589;46010;-65
2021/06/02 12:09:58;;;;;;;3.00;1.50;;;;;;;25.09;32.71;101586.41;143721;588;47007;-61
2021/06/02 12:12:25;;;;;;;6.87;2.75;;;;;;;25.23;33.14;101588.59;143723;641;46006;-62
2021/06/02 12:14:58;;;;;;;4.47;2.47;;;;;;;25.40;32.72;101583.59;143726;584;47008;-64
2021/06/02 12:17:31;;;;;;;6.10;4.37;;;;;;;25.49;32.14;101588.59;143722;637;47012;-63
2021/06/02 12:20:00;;;;;;;5.00;4.05;;;;;;;25.57;32.19;101579.75;143722;623;47004;-62
2021/06/02 12:22:27;;;;;;;2.53;1.83;;;;;;;25.57;32.33;101575.09;143720;648;47008;-63
2021/06/02 12:25:18;;;;;;;59.67;7.70;;;;;;;25.63;33.21;101589.63;143722;588;48005;-64
2021/06/02 12:27:50;;;;;;;4.43;1.42;;;;;;;25.55;32.01;101573.69;143722;575;46011;-62
2021/06/02 12:30:30;;;;;;;3.37;1.50;;;;;;;25.48;32.55;101582.25;143721;588;47004;-62